createdAt,value
2022-11-16T00:00:30.396Z,18.00
2022-11-16T00:02:57.587Z,14.10
2022-11-16T00:05:28.306Z,16.05
2022-11-16T00:07:55.981Z,14.00
2022-11-16T00:10:23.289Z,18.58
2022-11-16T00:12:50.599Z,14.10
2022-11-16T00:15:18.062Z,13.63
2022-11-16T00:17:45.200Z,16.83
2022-11-16T00:20:12.615Z,13.88
2022-11-16T00:22:39.808Z,15.43
2022-11-16T00:25:07.341Z,14.20
2022-11-16T00:27:34.639Z,14.73
2022-11-16T00:30:02.152Z,14.23
2022-11-16T00:32:29.630Z,14.25
2022-11-16T00:34:56.912Z,12.80
2022-11-16T00:37:24.061Z,16.00
2022-11-16T00:39:51.196Z,16.40
2022-11-16T00:42:18.385Z,14.73
2022-11-16T00:44:45.709Z,14.27
2022-11-16T00:47:12.960Z,16.27
2022-11-16T00:49:40.107Z,20.60
2022-11-16T00:52:07.404Z,18.08
2022-11-16T00:54:34.766Z,18.67
2022-11-16T00:57:01.960Z,16.83
2022-11-16T00:59:29.276Z,14.40
2022-11-16T01:01:56.527Z,18.77
2022-11-16T01:04:23.704Z,15.55
2022-11-16T01:06:52.405Z,14.20
2022-11-16T01:09:19.794Z,19.85
2022-11-16T01:12:05.888Z,16.10
2022-11-16T01:14:33.118Z,15.02
2022-11-16T01:17:00.393Z,16.95
2022-11-16T01:19:27.763Z,15.68
2022-11-16T01:21:54.985Z,17.73
2022-11-16T01:24:22.165Z,13.93
2022-11-16T01:26:49.299Z,16.25
2022-11-16T01:29:16.659Z,15.38
2022-11-16T01:31:44.092Z,13.88
2022-11-16T01:34:11.293Z,15.38
2022-11-16T01:36:38.601Z,16.88
2022-11-16T01:39:05.878Z,14.32
2022-11-16T01:41:33.090Z,13.77
2022-11-16T01:44:02.217Z,12.70
2022-11-16T01:46:29.960Z,13.15
2022-11-16T01:49:02.781Z,14.98
2022-11-16T01:51:30.324Z,15.63
2022-11-16T01:54:00.279Z,16.83
2022-11-16T01:56:27.601Z,14.73
2022-11-16T01:58:55.067Z,12.75
2022-11-16T02:01:22.373Z,15.32
2022-11-16T02:03:49.649Z,12.63
2022-11-16T02:06:24.659Z,15.50
2022-11-16T02:09:29.525Z,14.00
2022-11-16T02:12:07.599Z,13.77
2022-11-16T02:14:40.754Z,11.80
2022-11-16T02:17:26.751Z,17.48
2022-11-16T02:20:12.395Z,12.93
2022-11-16T02:22:54.867Z,13.90
2022-11-16T02:25:30.383Z,18.48
2022-11-16T02:28:06.326Z,12.77
2022-11-16T02:30:33.852Z,15.10
2022-11-16T02:33:09.657Z,18.70
2022-11-16T02:35:43.057Z,13.50
2022-11-16T02:38:15.516Z,11.07
2022-11-16T02:40:44.724Z,15.15
2022-11-16T02:43:13.731Z,14.88
2022-11-16T02:45:46.504Z,14.82
2022-11-16T02:48:20.048Z,11.90
2022-11-16T02:50:49.035Z,14.00
2022-11-16T02:53:16.202Z,12.90
2022-11-16T02:55:43.349Z,15.23
2022-11-16T02:58:12.208Z,14.27
2022-11-16T03:00:52.062Z,15.80
2022-11-16T03:03:38.705Z,13.35
2022-11-16T03:06:15.124Z,16.25
2022-11-16T03:08:44.933Z,12.00
2022-11-16T03:11:31.136Z,16.08
2022-11-16T03:14:02.514Z,13.05
2022-11-16T03:16:34.686Z,14.98
2022-11-16T03:19:03.646Z,15.07
2022-11-16T03:21:38.092Z,13.82
2022-11-16T03:24:06.077Z,14.03
2022-11-16T03:26:39.559Z,17.90
2022-11-16T03:29:14.714Z,14.80
2022-11-16T03:31:48.602Z,17.80
2022-11-16T03:34:17.563Z,17.08
2022-11-16T03:36:47.208Z,19.20
2022-11-16T03:39:25.703Z,16.48
2022-11-16T03:41:53.091Z,16.73
2022-11-16T03:44:21.175Z,20.08
2022-11-16T03:46:51.308Z,17.27
2022-11-16T03:49:21.740Z,19.15
2022-11-16T03:51:49.711Z,18.35
2022-11-16T03:54:17.181Z,17.27
2022-11-16T03:56:44.430Z,16.33
2022-11-16T03:59:11.601Z,20.67
2022-11-16T04:01:44.562Z,19.65
2022-11-16T04:04:32.457Z,19.00
2022-11-16T04:07:22.553Z,18.92
2022-11-16T04:10:08.364Z,20.25
2022-11-16T04:15:40.410Z,21.70
2022-11-16T04:18:28.244Z,20.17
2022-11-16T04:21:14.329Z,19.00
2022-11-16T04:24:03.960Z,23.67
2022-11-16T04:26:49.948Z,22.95
2022-11-16T04:29:17.329Z,20.98
2022-11-16T04:32:03.248Z,21.90
2022-11-16T04:34:49.385Z,19.92
2022-11-16T04:37:38.088Z,21.15
2022-11-16T04:40:05.557Z,24.92
2022-11-16T04:42:32.928Z,23.98
2022-11-16T04:45:18.971Z,22.13
2022-11-16T04:47:46.602Z,22.75
2022-11-16T04:50:13.935Z,20.85
2022-11-16T04:52:41.133Z,20.63
2022-11-16T04:55:08.466Z,19.08
2022-11-16T04:57:35.628Z,24.17
2022-11-16T05:00:03.671Z,24.00
2022-11-16T05:02:30.883Z,23.25
2022-11-16T05:04:58.267Z,23.60
2022-11-16T05:07:25.894Z,23.45
2022-11-16T05:09:53.395Z,24.85
2022-11-16T05:12:22.699Z,29.10
2022-11-16T05:14:50.033Z,22.85
2022-11-16T05:17:17.741Z,29.17
2022-11-16T05:20:06.162Z,26.27
2022-11-16T05:22:34.132Z,24.08
2022-11-16T05:25:01.779Z,27.42
2022-11-16T05:27:29.583Z,25.35
2022-11-16T05:29:57.316Z,24.85
2022-11-16T05:32:26.069Z,23.15
2022-11-16T05:34:53.264Z,24.70
2022-11-16T05:37:26.812Z,23.52
2022-11-16T05:39:54.951Z,26.83
2022-11-16T05:42:22.148Z,26.50
2022-11-16T05:44:49.347Z,23.33
2022-11-16T05:47:16.572Z,23.23
2022-11-16T05:49:43.962Z,26.10
2022-11-16T05:52:11.153Z,28.95
2022-11-16T05:54:38.403Z,22.88
2022-11-16T05:57:05.872Z,27.35
2022-11-16T05:59:33.261Z,23.90
2022-11-16T06:02:00.469Z,24.05
2022-11-16T06:04:27.745Z,26.75
2022-11-16T06:06:55.129Z,25.50
2022-11-16T06:09:22.323Z,28.63
2022-11-16T06:11:49.619Z,27.10
2022-11-16T06:14:17.492Z,27.55
2022-11-16T06:16:44.915Z,24.88
2022-11-16T06:19:12.388Z,29.00
2022-11-16T06:21:39.601Z,28.50
2022-11-16T06:24:09.137Z,24.88
2022-11-16T06:26:37.069Z,25.80
2022-11-16T06:29:04.384Z,27.75
2022-11-16T06:31:31.719Z,29.17
2022-11-16T06:33:58.943Z,28.05
2022-11-16T06:36:26.131Z,27.85
2022-11-16T06:38:53.439Z,26.15
2022-11-16T06:41:20.726Z,29.38
2022-11-16T06:43:48.242Z,31.83
2022-11-16T06:46:15.528Z,28.67
2022-11-16T06:48:43.337Z,25.92
2022-11-16T06:51:10.627Z,32.40
2022-11-16T06:53:37.880Z,30.13
2022-11-16T06:56:06.037Z,31.85
2022-11-16T06:58:33.820Z,31.45
2022-11-16T07:01:08.184Z,33.17
2022-11-16T07:03:35.439Z,35.35
2022-11-16T07:06:12.551Z,35.42
2022-11-16T07:08:40.132Z,32.67
2022-11-16T07:11:08.166Z,31.48
2022-11-16T07:13:38.920Z,27.83
2022-11-16T07:16:06.999Z,34.15
2022-11-16T07:18:35.612Z,32.45
2022-11-16T07:21:07.433Z,33.00
2022-11-16T07:23:34.789Z,33.13
2022-11-16T07:26:02.961Z,37.90
2022-11-16T07:28:30.685Z,34.90
2022-11-16T07:31:08.737Z,36.03
2022-11-16T07:33:36.135Z,35.08
2022-11-16T07:36:04.413Z,35.40
2022-11-16T07:38:32.584Z,36.22
2022-11-16T07:41:01.393Z,36.50
2022-11-16T07:43:32.008Z,32.60
2022-11-16T07:46:44.487Z,35.53
2022-11-16T07:48:53.268Z,35.10
2022-11-16T07:51:20.825Z,33.35
2022-11-16T07:53:48.056Z,35.75
2022-11-16T07:56:15.209Z,38.13
2022-11-16T07:58:42.429Z,30.42
2022-11-16T08:01:11.513Z,36.72
2022-11-16T08:03:39.609Z,35.85
2022-11-16T08:06:08.213Z,33.03
2022-11-16T08:08:35.769Z,36.38
2022-11-16T08:11:04.292Z,35.40
2022-11-16T08:13:34.206Z,31.98
2022-11-16T08:16:09.545Z,35.40
2022-11-16T08:21:04.982Z,35.13
2022-11-16T08:23:32.245Z,31.60
2022-11-16T08:26:03.832Z,33.60
2022-11-16T08:28:31.656Z,32.55
2022-11-16T08:30:59.608Z,30.52
2022-11-16T08:33:27.487Z,33.83
2022-11-16T08:35:55.052Z,28.50
2022-11-16T08:38:22.228Z,31.27
2022-11-16T08:40:50.925Z,33.40
2022-11-16T08:43:18.699Z,27.05
2022-11-16T08:45:48.368Z,34.13
2022-11-16T08:48:15.703Z,28.60
2022-11-16T08:51:10.483Z,33.03
2022-11-16T08:53:30.212Z,29.02
2022-11-16T08:56:02.418Z,27.92
2022-11-16T08:58:29.852Z,26.60
2022-11-16T09:00:57.316Z,28.48
2022-11-16T09:03:24.504Z,27.95
2022-11-16T09:05:51.719Z,29.08
2022-11-16T09:08:18.881Z,28.48
2022-11-16T09:10:46.048Z,25.58
2022-11-16T09:13:13.345Z,25.05
2022-11-16T09:15:40.656Z,24.70
2022-11-16T09:18:07.873Z,23.50
2022-11-16T09:20:35.086Z,23.42
2022-11-16T09:23:02.428Z,22.15
2022-11-16T09:25:29.660Z,26.00
2022-11-16T09:27:56.867Z,21.67
2022-11-16T09:30:24.078Z,24.00
2022-11-16T09:32:51.307Z,24.33
2022-11-16T09:35:20.710Z,20.67
2022-11-16T09:37:47.864Z,24.17
2022-11-16T09:40:15.067Z,22.42
2022-11-16T09:42:49.517Z,21.50
2022-11-16T09:45:22.843Z,23.83
2022-11-16T09:47:51.619Z,23.67
2022-11-16T09:50:27.712Z,22.15
2022-11-16T09:52:57.304Z,21.95
2022-11-16T09:55:26.638Z,22.05
2022-11-16T09:57:56.311Z,18.67
2022-11-16T10:00:25.144Z,20.33
2022-11-16T10:02:58.411Z,17.63
2022-11-16T10:05:28.861Z,21.98
2022-11-16T10:08:00.238Z,17.67
2022-11-16T10:10:35.036Z,20.55
2022-11-16T10:13:13.282Z,17.55
2022-11-16T10:15:46.559Z,16.17
2022-11-16T10:18:33.979Z,16.60
2022-11-16T10:21:03.528Z,14.02
2022-11-16T10:23:33.952Z,15.68
2022-11-16T10:26:17.475Z,14.27
2022-11-16T10:28:54.071Z,14.68
2022-11-16T10:31:38.800Z,13.48
2022-11-16T10:34:07.784Z,18.02
2022-11-16T10:36:36.303Z,20.63
2022-11-16T10:39:03.563Z,21.25
2022-11-16T10:41:38.065Z,15.98
2022-11-16T10:44:12.382Z,16.93
2022-11-16T10:46:44.625Z,17.77
2022-11-16T10:49:34.868Z,17.05
2022-11-16T10:52:02.083Z,15.60
2022-11-16T10:54:29.203Z,16.55
2022-11-16T10:57:14.506Z,15.02
2022-11-16T10:59:45.782Z,17.60
2022-11-16T11:02:33.631Z,13.50
2022-11-16T11:05:17.675Z,16.38
2022-11-16T11:07:46.465Z,19.10
2022-11-16T11:10:42.937Z,15.40
2022-11-16T11:13:10.083Z,16.88
2022-11-16T11:15:37.589Z,15.85
2022-11-16T11:18:25.688Z,19.17
2022-11-16T11:21:05.688Z,16.33
2022-11-16T11:23:39.770Z,16.73
2022-11-16T11:26:07.056Z,19.83
2022-11-16T11:28:47.202Z,21.05
2022-11-16T11:31:25.715Z,16.98
2022-11-16T11:33:54.880Z,19.23
2022-11-16T11:36:22.947Z,15.52
2022-11-16T11:39:01.781Z,20.77
2022-11-16T11:41:33.166Z,19.67
2022-11-16T11:44:04.893Z,17.70
2022-11-16T11:47:11.035Z,19.02
2022-11-16T11:49:35.492Z,19.60
2022-11-16T11:52:05.871Z,17.50
2022-11-16T11:54:34.055Z,21.63
2022-11-16T11:57:03.970Z,20.20
2022-11-16T11:59:31.184Z,19.27
2022-11-16T12:02:07.557Z,20.23
2022-11-16T12:04:54.918Z,19.83
2022-11-16T12:07:31.206Z,20.35
2022-11-16T12:09:58.367Z,17.83
2022-11-16T12:12:38.283Z,18.05
2022-11-16T12:15:24.291Z,18.75
2022-11-16T12:18:10.366Z,19.17
2022-11-16T12:20:46.744Z,20.02
2022-11-16T12:23:19.920Z,16.23
2022-11-16T12:25:53.156Z,18.48
2022-11-16T12:28:23.122Z,16.27
2022-11-16T12:31:02.217Z,16.50
2022-11-16T12:33:29.377Z,21.02
2022-11-16T12:36:02.310Z,16.30
2022-11-16T12:38:58.720Z,17.13
2022-11-16T12:41:25.863Z,13.70
2022-11-16T12:44:15.580Z,15.10
2022-11-16T12:46:42.749Z,17.13
2022-11-16T12:49:24.203Z,14.95
2022-11-16T12:51:57.263Z,14.85
2022-11-16T12:54:36.624Z,14.77
2022-11-16T12:57:03.751Z,15.77
2022-11-16T12:59:30.925Z,11.57
2022-11-16T13:02:00.592Z,13.60
2022-11-16T13:04:40.431Z,12.50
2022-11-16T13:07:11.522Z,16.67
2022-11-16T13:09:41.527Z,15.88
2022-11-16T13:12:14.216Z,13.32
2022-11-16T13:14:43.612Z,13.00
2022-11-16T13:17:14.297Z,12.40
2022-11-16T13:19:42.731Z,17.25
2022-11-16T13:22:18.254Z,12.40
2022-11-16T13:25:04.232Z,10.73
2022-11-16T13:27:40.514Z,10.90
2022-11-16T13:30:19.700Z,13.43
2022-11-16T13:32:49.873Z,11.70
2022-11-16T13:35:18.004Z,12.45
2022-11-16T13:37:49.161Z,13.05
2022-11-16T13:40:23.816Z,13.68
2022-11-16T13:43:10.051Z,10.35
2022-11-16T13:45:49.734Z,13.98
2022-11-16T13:48:20.045Z,17.05
2022-11-16T13:50:48.739Z,12.93
2022-11-16T13:56:10.351Z,11.55
2022-11-16T13:58:38.973Z,13.45
2022-11-16T14:01:08.927Z,22.50
2022-11-16T14:03:40.212Z,11.85
2022-11-16T14:06:27.347Z,13.48
2022-11-16T14:08:55.371Z,11.07
2022-11-16T14:11:28.740Z,14.15
2022-11-16T14:13:55.905Z,15.80
2022-11-16T14:16:23.168Z,11.98
2022-11-16T14:18:51.436Z,14.52
2022-11-16T14:21:25.647Z,21.85
2022-11-16T14:24:11.324Z,18.40
2022-11-16T14:26:47.646Z,12.50
2022-11-16T14:29:34.263Z,15.45
2022-11-16T14:32:02.874Z,16.65
2022-11-16T14:34:32.829Z,16.23
2022-11-16T14:37:01.088Z,17.73
2022-11-16T14:39:38.410Z,16.00
2022-11-16T14:42:08.460Z,16.88
2022-11-16T14:44:39.160Z,21.20
2022-11-16T14:47:06.849Z,15.95
2022-11-16T14:49:35.384Z,20.45
2022-11-16T14:52:03.900Z,16.50
2022-11-16T14:54:35.767Z,22.67
2022-11-16T14:57:04.568Z,18.55
2022-11-16T14:59:32.328Z,19.30
2022-11-16T15:02:02.011Z,21.67
2022-11-16T15:04:29.193Z,17.75
2022-11-16T15:06:59.018Z,19.88
2022-11-16T15:09:30.637Z,19.80
2022-11-16T15:12:17.309Z,22.05
2022-11-16T15:15:05.458Z,17.50
2022-11-16T15:17:33.636Z,18.80
2022-11-16T15:20:16.284Z,19.55
2022-11-16T15:22:44.853Z,15.50
2022-11-16T15:25:24.862Z,21.45
2022-11-16T15:27:52.251Z,18.67
2022-11-16T15:30:20.948Z,19.95
2022-11-16T15:32:49.083Z,20.13
2022-11-16T15:35:18.882Z,20.35
2022-11-16T15:37:46.173Z,25.33
2022-11-16T15:40:13.832Z,16.52
2022-11-16T15:42:42.308Z,17.27
2022-11-16T15:45:15.611Z,28.17
2022-11-16T15:47:45.428Z,31.58
2022-11-16T15:50:18.257Z,42.45
2022-11-16T15:52:47.164Z,40.53
2022-11-16T15:55:21.564Z,46.42
2022-11-16T15:57:59.233Z,44.00
2022-11-16T16:00:27.391Z,41.80
2022-11-16T16:02:57.208Z,40.90
2022-11-16T16:05:37.276Z,47.80
2022-11-16T16:08:05.667Z,52.03
2022-11-16T16:10:33.075Z,56.75
2022-11-16T16:13:01.171Z,52.72
2022-11-16T16:15:30.267Z,49.83
2022-11-16T16:17:58.505Z,53.72
2022-11-16T16:20:26.431Z,58.08
2022-11-16T16:22:54.525Z,61.30
2022-11-16T16:25:33.240Z,69.22
2022-11-16T16:28:00.793Z,73.90
2022-11-16T16:30:31.833Z,88.45
2022-11-16T16:32:59.177Z,83.25
2022-11-16T16:35:26.899Z,88.60
2022-11-16T16:37:58.790Z,79.15
2022-11-16T16:40:26.556Z,78.55
2022-11-16T16:42:54.117Z,79.35
2022-11-16T16:45:25.003Z,79.75
2022-11-16T16:47:52.187Z,84.90
2022-11-16T16:50:19.331Z,80.50
2022-11-16T16:52:46.485Z,84.35
2022-11-16T16:55:13.713Z,77.63
2022-11-16T16:57:40.904Z,85.50
2022-11-16T17:00:08.384Z,85.85
2022-11-16T17:02:37.008Z,81.18
2022-11-16T17:05:04.291Z,81.53
2022-11-16T17:07:31.447Z,78.90
2022-11-16T17:09:58.645Z,81.63
2022-11-16T17:12:25.869Z,79.90
2022-11-16T17:14:53.092Z,76.65
2022-11-16T17:17:20.836Z,85.18
2022-11-16T17:19:48.196Z,76.40
2022-11-16T17:22:15.376Z,72.60
2022-11-16T17:24:42.542Z,75.03
2022-11-16T17:27:09.734Z,68.03
2022-11-16T17:29:36.881Z,68.68
2022-11-16T17:32:04.342Z,71.78
2022-11-16T17:34:32.135Z,66.63
2022-11-16T17:36:59.357Z,68.22
2022-11-16T17:39:27.497Z,61.42
2022-11-16T17:41:54.745Z,61.53
2022-11-16T17:44:22.422Z,61.22
2022-11-16T17:46:49.781Z,66.63
2022-11-16T17:49:17.000Z,63.97
2022-11-16T17:51:44.397Z,57.05
2022-11-16T17:54:11.627Z,57.78
2022-11-16T17:56:39.048Z,67.50
2022-11-16T17:59:06.303Z,68.85
2022-11-16T18:01:33.696Z,65.57
2022-11-16T18:04:02.523Z,59.78
2022-11-16T18:06:29.772Z,67.72
2022-11-16T18:08:57.629Z,60.47
2022-11-16T18:11:25.983Z,65.18
2022-11-16T18:13:54.186Z,64.65
2022-11-16T18:16:22.644Z,68.30
2022-11-16T18:18:50.786Z,63.75
2022-11-16T18:21:20.829Z,66.60
2022-11-16T18:23:48.556Z,70.50
2022-11-16T18:26:17.839Z,66.78
2022-11-16T18:28:45.492Z,64.72
2022-11-16T18:31:13.994Z,62.72
2022-11-16T18:33:41.166Z,65.90
2022-11-16T18:36:08.924Z,62.33
2022-11-16T18:38:39.408Z,59.10
2022-11-16T18:41:17.222Z,65.53
2022-11-16T18:43:50.720Z,67.68
2022-11-16T18:46:19.065Z,63.35
2022-11-16T18:48:46.920Z,65.18
2022-11-16T18:51:15.250Z,61.03
2022-11-16T18:53:43.315Z,66.28
2022-11-16T18:56:11.911Z,70.70
2022-11-16T18:58:54.624Z,63.13
2022-11-16T19:01:23.542Z,67.53
2022-11-16T19:03:51.776Z,72.45
2022-11-16T19:06:19.205Z,68.88
2022-11-16T19:08:53.756Z,69.65
2022-11-16T19:11:22.554Z,66.68
2022-11-16T19:13:52.672Z,63.63
2022-11-16T19:16:19.868Z,66.68
2022-11-16T19:18:47.066Z,68.30
2022-11-16T19:21:15.014Z,73.28
2022-11-16T19:23:46.173Z,74.50
2022-11-16T19:26:14.853Z,70.25
2022-11-16T19:28:45.933Z,74.30
2022-11-16T19:31:14.298Z,76.47
2022-11-16T19:33:41.980Z,74.95
2022-11-16T19:36:13.776Z,76.25
2022-11-16T19:38:41.462Z,68.68
2022-11-16T19:41:09.165Z,74.90
2022-11-16T19:43:36.662Z,68.80
2022-11-16T19:46:05.123Z,71.07
2022-11-16T19:48:33.068Z,72.60
2022-11-16T19:51:13.876Z,74.80
2022-11-16T19:53:41.330Z,71.35
2022-11-16T19:56:10.845Z,69.00
2022-11-16T19:58:39.030Z,71.80
2022-11-16T20:01:06.452Z,81.80
2022-11-16T20:03:34.908Z,76.22
2022-11-16T20:06:09.358Z,78.43
2022-11-16T20:08:37.068Z,83.25
2022-11-16T20:11:14.210Z,74.30
2022-11-16T20:13:42.552Z,76.35
2022-11-16T20:16:11.003Z,82.10
2022-11-16T20:18:38.925Z,75.88
2022-11-16T20:21:06.948Z,75.40
2022-11-16T20:23:35.049Z,75.30
2022-11-16T20:26:09.480Z,73.80
2022-11-16T20:28:41.055Z,77.63
2022-11-16T20:31:09.030Z,86.88
2022-11-16T20:33:36.757Z,85.18
2022-11-16T20:36:05.152Z,79.65
2022-11-16T20:38:34.051Z,77.25
2022-11-16T20:41:11.356Z,78.82
2022-11-16T20:43:42.201Z,83.68
2022-11-16T20:46:10.423Z,77.55
2022-11-16T20:48:38.348Z,79.20
2022-11-16T20:51:06.403Z,73.28
2022-11-16T20:53:34.037Z,74.50
2022-11-16T20:56:04.401Z,79.53
2022-11-16T20:58:32.062Z,78.03
2022-11-16T21:01:06.631Z,81.45
2022-11-16T21:03:34.419Z,75.15
2022-11-16T21:06:02.008Z,84.57
2022-11-16T21:08:29.971Z,75.03
2022-11-16T21:10:57.329Z,78.50
2022-11-16T21:13:43.101Z,74.57
2022-11-16T21:18:40.759Z,67.03
2022-11-16T21:21:09.215Z,72.78
2022-11-16T21:23:37.393Z,76.07
2022-11-16T21:26:05.419Z,73.78
2022-11-16T21:28:32.888Z,72.13
2022-11-16T21:31:01.065Z,65.65
2022-11-16T21:33:28.439Z,65.70
2022-11-16T21:35:56.247Z,61.92
2022-11-16T21:38:23.979Z,69.15
2022-11-16T21:40:51.188Z,66.85
2022-11-16T21:43:18.582Z,71.97
2022-11-16T21:45:46.618Z,61.60
2022-11-16T21:48:14.074Z,58.42
2022-11-16T21:50:41.586Z,60.63
2022-11-16T21:53:08.967Z,59.00
2022-11-16T21:55:36.491Z,58.95
2022-11-16T21:58:04.018Z,56.50
2022-11-16T22:00:31.279Z,63.83
2022-11-16T22:02:58.473Z,56.13
2022-11-16T22:05:44.284Z,60.42
2022-11-16T22:08:11.817Z,48.00
2022-11-16T22:10:39.083Z,52.80
2022-11-16T22:13:06.381Z,51.53
2022-11-16T22:15:33.595Z,48.75
2022-11-16T22:18:02.110Z,47.78
2022-11-16T22:20:29.378Z,54.65
2022-11-16T22:22:56.505Z,48.50
2022-11-16T22:25:23.771Z,52.25
2022-11-16T22:28:20.189Z,41.08
2022-11-16T22:30:38.308Z,43.92
2022-11-16T22:33:05.459Z,42.58
2022-11-16T22:35:32.601Z,40.67
2022-11-16T22:37:59.780Z,36.25
2022-11-16T22:40:26.954Z,40.25
2022-11-16T22:42:57.639Z,40.38
2022-11-16T22:45:25.269Z,33.88
2022-11-16T22:47:54.924Z,37.50
2022-11-16T22:50:24.096Z,38.42
2022-11-16T22:52:51.256Z,32.30
2022-11-16T22:55:18.523Z,30.08
2022-11-16T22:57:45.684Z,32.13
2022-11-16T23:00:13.807Z,28.02
2022-11-16T23:02:41.352Z,29.60
2022-11-16T23:05:08.808Z,28.77
2022-11-16T23:07:36.116Z,30.70
2022-11-16T23:10:03.355Z,26.92
2022-11-16T23:12:49.301Z,32.60
2022-11-16T23:15:35.292Z,30.63
2022-11-16T23:18:02.494Z,23.45
2022-11-16T23:20:48.119Z,23.48
2022-11-16T23:23:37.532Z,29.05
2022-11-16T23:26:24.787Z,24.83
2022-11-16T23:28:52.078Z,25.08
2022-11-16T23:31:19.336Z,25.38
2022-11-16T23:33:47.778Z,25.92
2022-11-16T23:36:15.438Z,22.63
2022-11-16T23:38:42.647Z,26.67
2022-11-16T23:41:28.659Z,25.10
2022-11-16T23:43:59.121Z,24.52
2022-11-16T23:46:27.300Z,25.50
2022-11-16T23:48:54.573Z,27.70
2022-11-16T23:51:23.471Z,24.10
2022-11-16T23:53:53.958Z,23.77
2022-11-16T23:56:21.695Z,24.98
2022-11-16T23:58:48.916Z,23.08
